Aérodrome :
LOGIN :

S'inscrire | Disclaimer

   EN    FR    IT 

 










Légende :    VFR   VFR Marginal   IFR   IFR Intensif   IFR Très Intensif
Visi : 
Plafond : 
>= 8 km
>= 3000ft
5 à 8 km
1000 à 3000 ft
1500m à 5 km
500 à 1000 ft
800 à 1500m
200 à 500 ft
< 800m
< 200 ft
Symboles :   Orages  Brouillard  Fortes neiges  Fortes précipitations  Vent > 20 kt
SIGMETs :   Divers  Orages  Givrage  Turbulence  Onde Orograph.  Cendres Volcan.







- Altitude de l'aérodrome : 194 ft


EBCV - Chièvres

DERNIER METAR :
  • 181525Z AUTO 27012KT 9999 BKN034/// 08/02 Q1003 BLU

METARs EXPIRÉS :
  • 181455Z AUTO 26011KT 9999 FEW034/// 07/02 Q1003 BLU
  • 181425Z AUTO 26012KT 9999 SCT034/// 08/02 Q1003 BLU
  • 181355Z AUTO 27009KT 9999 SCT043/// 07/02 Q1003 BLU
  • 181325Z AUTO 28014KT 9999 BKN038/// 08/02 Q1003 BLU
  • 181255Z AUTO 29012KT 9999 BKN040/// 08/01 Q1003 BLU

TAF TAF EBCV
Valide du 18 à 13h jusqu'au 18 à 22h UTC


181141Z 1813/1822 28015G30KT 9999 SCT030
TEMPO 1813/1822 28017G35KT 6000 -SHRA SCT020TCU SCT030
PROB40
TEMPO 1816/1822 4000 SHRA FEW010 BKN014TCU
BECMG 1814/1816 25012G27KT BY EBWM
Pas de NOTAMs connus pour ce terrain.



MET'MAP, la Météo Aéronautique d'un coup d'oeil ! - Copyright ORBIFLY Décembre 2007 - Disclaimer

ORBIFLY MET'MAP TEAM :

Programmation & Développement : Alexandra Zaïnal
Conception & Développement : Baudouin d'Aumeries
Co-Programmation & Développement : Marc-Olivier Méhu
Soutien technique & logistique : Manuel Goepfert

Contact : metmap@orbifly.com




SOURCES & CREDITS :

   NOAA